createdAt,value
2022-12-04T00:02:23.946Z,88.85
2022-12-04T00:04:50.703Z,93.65
2022-12-04T00:07:17.258Z,95.65
2022-12-04T00:09:43.733Z,91.13
2022-12-04T00:12:10.431Z,92.93
2022-12-04T00:14:54.520Z,90.55
2022-12-04T00:17:23.183Z,92.47
2022-12-04T00:19:49.638Z,83.22
2022-12-04T00:22:16.029Z,88.07
2022-12-04T00:24:42.426Z,102.72
2022-12-04T00:27:08.853Z,95.70
2022-12-04T00:29:35.232Z,89.05
2022-12-04T00:32:01.733Z,91.20
2022-12-04T00:34:28.254Z,87.65
2022-12-04T00:36:54.665Z,102.30
2022-12-04T00:39:21.128Z,92.28
2022-12-04T00:41:47.539Z,86.57
2022-12-04T00:44:13.923Z,103.53
2022-12-04T00:46:40.707Z,72.97
2022-12-04T00:49:07.185Z,91.40
2022-12-04T00:51:33.563Z,95.75
2022-12-04T00:53:59.979Z,89.40
2022-12-04T00:56:27.842Z,87.65
2022-12-04T00:58:56.412Z,102.15
2022-12-04T01:01:23.446Z,99.32
2022-12-04T01:03:50.763Z,97.97
2022-12-04T01:06:23.561Z,100.93
2022-12-04T01:08:51.167Z,91.55
2022-12-04T01:11:18.226Z,84.50
2022-12-04T01:13:45.352Z,99.22
2022-12-04T01:16:28.070Z,84.55
2022-12-04T01:18:54.624Z,98.03
2022-12-04T01:21:21.098Z,91.35
2022-12-04T01:23:48.073Z,100.53
2022-12-04T01:26:14.719Z,100.22
2022-12-04T01:28:41.596Z,96.75
2022-12-04T01:31:10.550Z,87.88
2022-12-04T01:37:54.540Z,91.07
2022-12-04T01:49:00.401Z,102.30
2022-12-04T01:51:37.919Z,98.05
2022-12-04T01:54:11.805Z,95.72
2022-12-04T01:56:48.157Z,94.00
2022-12-04T01:59:17.731Z,111.88
2022-12-04T02:01:52.065Z,101.40
2022-12-04T02:04:18.594Z,102.30
2022-12-04T02:06:45.056Z,90.95
2022-12-04T02:09:11.875Z,108.05
2022-12-04T02:11:40.981Z,96.43
2022-12-04T02:14:30.322Z,98.55
2022-12-04T02:17:06.239Z,99.93
2022-12-04T02:20:00.755Z,104.80
2022-12-04T02:22:35.875Z,97.28
2022-12-04T02:25:23.219Z,93.72
2022-12-04T02:28:08.781Z,82.13
2022-12-04T02:30:39.413Z,105.03
2022-12-04T02:33:15.986Z,106.97
2022-12-04T02:36:11.360Z,95.35
2022-12-04T02:38:41.794Z,96.78
2022-12-04T02:41:35.073Z,101.20
2022-12-04T02:44:12.887Z,83.90
2022-12-04T02:46:44.439Z,100.68
2022-12-04T02:49:25.424Z,103.10
2022-12-04T02:51:53.126Z,98.93
2022-12-04T02:54:25.691Z,94.20
2022-12-04T02:56:52.420Z,95.95
2022-12-04T02:59:31.042Z,94.97
2022-12-04T03:02:00.439Z,98.15
2022-12-04T03:04:30.712Z,92.35
2022-12-04T03:07:01.674Z,100.65
2022-12-04T03:12:02.568Z,82.95
2022-12-04T03:14:32.719Z,91.85
2022-12-04T03:17:04.383Z,94.05
2022-12-04T03:19:39.787Z,86.78
2022-12-04T03:22:10.268Z,101.07
2022-12-04T03:24:40.922Z,99.57
2022-12-04T03:27:29.986Z,87.03
2022-12-04T03:30:13.280Z,101.43
2022-12-04T03:32:45.607Z,99.20
2022-12-04T03:35:18.209Z,80.97
2022-12-04T03:38:04.235Z,84.07
2022-12-04T03:40:53.737Z,85.07
2022-12-04T03:43:39.687Z,91.72
2022-12-04T03:46:12.046Z,91.93
2022-12-04T03:48:49.730Z,97.38
2022-12-04T03:51:26.605Z,77.15
2022-12-04T03:53:56.914Z,92.50
2022-12-04T03:56:45.141Z,88.38
2022-12-04T03:59:15.674Z,85.38
2022-12-04T04:01:46.588Z,90.82
2022-12-04T04:06:46.780Z,83.32
2022-12-04T04:09:17.352Z,82.15
2022-12-04T04:11:50.025Z,82.50
2022-12-04T04:15:00.343Z,93.30
2022-12-04T04:17:49.464Z,87.53
2022-12-04T04:20:40.118Z,74.57
2022-12-04T04:23:28.287Z,70.63
2022-12-04T04:25:57.286Z,77.93
2022-12-04T04:28:31.759Z,81.13
2022-12-04T04:31:26.171Z,78.28
2022-12-04T04:34:11.351Z,75.50
2022-12-04T04:36:53.336Z,73.50
2022-12-04T04:39:25.588Z,70.47
2022-12-04T04:42:03.366Z,71.95
2022-12-04T04:44:38.284Z,67.30
2022-12-04T04:47:07.166Z,77.40
2022-12-04T04:49:34.420Z,71.78
2022-12-04T04:52:02.791Z,72.75
2022-12-04T04:54:31.099Z,67.75
2022-12-04T04:56:57.489Z,74.93
2022-12-04T04:59:23.901Z,75.78
2022-12-04T05:01:51.736Z,73.40
2022-12-04T05:04:18.189Z,73.03
2022-12-04T05:06:44.683Z,77.22
2022-12-04T05:09:11.087Z,76.60
2022-12-04T05:11:37.461Z,77.80
2022-12-04T05:14:05.875Z,77.57
2022-12-04T05:16:32.633Z,76.65
2022-12-04T05:19:18.030Z,75.07
2022-12-04T05:21:44.425Z,69.03
2022-12-04T05:24:10.822Z,85.13
2022-12-04T05:26:37.252Z,71.22
2022-12-04T05:29:03.729Z,76.53
2022-12-04T05:31:30.243Z,82.10
2022-12-04T05:33:57.147Z,70.47
2022-12-04T05:36:23.535Z,67.05
2022-12-04T05:38:49.909Z,68.22
2022-12-04T05:41:16.335Z,72.95
2022-12-04T05:43:42.716Z,68.22
2022-12-04T05:46:09.166Z,71.97
2022-12-04T05:48:36.273Z,80.95
2022-12-04T05:51:10.117Z,67.85
2022-12-04T05:53:37.386Z,64.78
2022-12-04T05:56:05.197Z,64.32
2022-12-04T05:58:35.239Z,66.93
2022-12-04T06:01:08.353Z,70.37
2022-12-04T06:03:34.928Z,66.00
2022-12-04T06:06:01.365Z,60.50
2022-12-04T06:08:27.751Z,72.07
2022-12-04T06:10:54.126Z,61.22
2022-12-04T06:13:20.522Z,72.88
2022-12-04T06:15:46.913Z,58.67
2022-12-04T06:18:13.321Z,58.15
2022-12-04T06:20:40.103Z,57.30
2022-12-04T06:23:06.557Z,64.93
2022-12-04T06:25:34.237Z,59.38
2022-12-04T06:28:00.625Z,59.33
2022-12-04T06:30:27.036Z,59.53
2022-12-04T06:32:53.462Z,70.63
2022-12-04T06:35:19.855Z,62.85
2022-12-04T06:37:46.272Z,59.45
2022-12-04T06:40:12.806Z,67.88
2022-12-04T06:42:39.177Z,72.82
2022-12-04T06:45:06.562Z,73.07
2022-12-04T06:47:35.008Z,65.20
2022-12-04T06:50:01.576Z,76.85
2022-12-04T06:52:28.135Z,69.43
2022-12-04T06:54:54.545Z,80.32
2022-12-04T06:57:20.927Z,68.05
2022-12-04T06:59:47.324Z,64.75
2022-12-04T07:02:13.836Z,70.63
2022-12-04T07:04:40.308Z,68.50
2022-12-04T07:07:10.024Z,69.53
2022-12-04T07:09:38.747Z,67.40
2022-12-04T07:12:05.684Z,63.92
2022-12-04T07:14:32.198Z,76.20
2022-12-04T07:16:58.640Z,75.97
2022-12-04T07:19:25.129Z,65.45
2022-12-04T07:21:51.518Z,70.70
2022-12-04T07:24:18.019Z,69.13
2022-12-04T07:26:44.737Z,69.35
2022-12-04T07:29:11.253Z,53.47
2022-12-04T07:31:38.098Z,68.00
2022-12-04T07:34:04.615Z,63.47
2022-12-04T07:36:31.036Z,71.30
2022-12-04T07:38:57.953Z,67.18
2022-12-04T07:41:24.685Z,72.82
2022-12-04T07:43:51.130Z,68.90
2022-12-04T07:46:20.789Z,65.32
2022-12-04T07:48:47.239Z,69.60
2022-12-04T07:51:16.151Z,78.38
2022-12-04T07:53:42.995Z,74.00
2022-12-04T07:56:10.645Z,69.75
2022-12-04T07:58:37.293Z,64.97
2022-12-04T08:01:13.146Z,68.68
2022-12-04T08:03:46.692Z,68.78
2022-12-04T08:06:13.988Z,65.43
2022-12-04T08:08:40.468Z,65.32
2022-12-04T08:11:12.448Z,55.05
2022-12-04T08:13:38.892Z,58.92
2022-12-04T08:16:07.648Z,48.10
2022-12-04T08:18:34.281Z,55.13
2022-12-04T08:21:12.421Z,73.22
2022-12-04T08:23:40.373Z,78.60
2022-12-04T08:26:07.730Z,65.50
2022-12-04T08:28:34.231Z,58.15
2022-12-04T08:31:21.301Z,62.45
2022-12-04T08:33:49.326Z,57.42
2022-12-04T08:36:19.252Z,60.03
2022-12-04T08:38:46.559Z,58.95
2022-12-04T08:41:15.427Z,61.40
2022-12-04T08:43:42.072Z,56.20
2022-12-04T08:46:13.532Z,61.00
2022-12-04T08:48:40.412Z,59.38
2022-12-04T08:51:10.210Z,55.10
2022-12-04T08:53:36.619Z,54.90
2022-12-04T08:56:04.085Z,60.88
2022-12-04T08:58:30.740Z,59.42
2022-12-04T09:01:03.904Z,63.78
2022-12-04T09:03:31.175Z,64.95
2022-12-04T09:06:02.541Z,66.05
2022-12-04T09:08:28.934Z,60.30
2022-12-04T09:10:55.389Z,56.25
2022-12-04T09:13:21.835Z,54.45
2022-12-04T09:15:48.310Z,58.83
2022-12-04T09:18:14.749Z,55.25
2022-12-04T09:20:41.156Z,59.53
2022-12-04T09:23:07.640Z,52.63
2022-12-04T09:25:37.691Z,55.08
2022-12-04T09:28:04.661Z,57.30
2022-12-04T09:30:31.162Z,54.00
2022-12-04T09:32:57.770Z,57.40
2022-12-04T09:35:24.210Z,64.43
2022-12-04T09:37:50.713Z,53.95
2022-12-04T09:40:33.499Z,59.22
2022-12-04T09:43:12.429Z,68.80
2022-12-04T09:45:51.637Z,67.13
2022-12-04T09:48:19.761Z,60.42
2022-12-04T09:50:47.279Z,75.65
2022-12-04T09:53:19.989Z,66.85
2022-12-04T09:56:07.306Z,67.40
2022-12-04T09:58:42.156Z,61.50
2022-12-04T10:01:18.764Z,66.28
2022-12-04T10:03:45.386Z,66.55
2022-12-04T10:06:32.374Z,75.95
2022-12-04T10:09:09.463Z,65.35
2022-12-04T10:11:43.745Z,68.15
2022-12-04T10:14:19.838Z,69.18
2022-12-04T10:16:58.084Z,70.95
2022-12-04T10:19:43.937Z,59.25
2022-12-04T10:22:11.580Z,57.08
2022-12-04T10:24:50.256Z,58.45
2022-12-04T10:27:24.057Z,54.53
2022-12-04T10:29:58.721Z,63.03
2022-12-04T10:32:32.773Z,62.72
2022-12-04T10:35:19.001Z,64.60
2022-12-04T10:37:46.048Z,63.80
2022-12-04T10:40:18.589Z,69.72
2022-12-04T10:42:53.621Z,74.70
2022-12-04T10:45:21.673Z,63.15
2022-12-04T10:47:49.404Z,58.67
2022-12-04T10:50:23.596Z,67.90
2022-12-04T10:52:50.446Z,66.55
2022-12-04T10:55:31.350Z,57.42
2022-12-04T10:57:57.927Z,59.60
2022-12-04T11:00:34.270Z,58.95
2022-12-04T11:03:03.128Z,64.13
2022-12-04T11:05:33.521Z,68.03
2022-12-04T11:08:01.283Z,56.85
2022-12-04T11:10:39.723Z,61.67
2022-12-04T11:13:16.208Z,73.05
2022-12-04T11:15:51.044Z,64.32
2022-12-04T11:18:29.652Z,62.95
2022-12-04T11:20:58.825Z,59.58
2022-12-04T11:23:26.659Z,66.75
2022-12-04T11:25:57.301Z,62.70
2022-12-04T11:28:46.107Z,76.05
2022-12-04T11:31:18.333Z,61.72
2022-12-04T11:33:50.260Z,72.65
2022-12-04T11:36:22.406Z,60.80
2022-12-04T11:38:50.086Z,58.25
2022-12-04T11:41:28.897Z,62.00
2022-12-04T11:43:59.903Z,70.18
2022-12-04T11:46:31.812Z,73.57
2022-12-04T11:48:59.041Z,70.70
2022-12-04T11:51:47.195Z,68.93
2022-12-04T11:54:30.305Z,72.88
2022-12-04T11:57:34.366Z,71.03
2022-12-04T12:00:30.278Z,80.53
2022-12-04T12:03:16.542Z,85.57
2022-12-04T12:06:20.680Z,80.00
2022-12-04T12:08:58.346Z,75.40
2022-12-04T12:11:54.223Z,73.15
2022-12-04T12:14:41.013Z,76.47
2022-12-04T12:17:23.917Z,70.90
2022-12-04T12:20:11.870Z,79.30
2022-12-04T12:22:44.334Z,73.30
2022-12-04T12:25:22.183Z,67.82
2022-12-04T12:28:19.566Z,63.60
2022-12-04T12:31:16.403Z,66.30
2022-12-04T12:34:04.695Z,64.28
2022-12-04T12:36:34.232Z,65.70
2022-12-04T12:39:12.074Z,57.95
2022-12-04T12:41:44.425Z,58.92
2022-12-04T12:44:34.543Z,49.25
2022-12-04T12:47:07.949Z,53.00
2022-12-04T12:49:40.051Z,53.65
2022-12-04T12:52:14.571Z,49.80
2022-12-04T12:54:46.380Z,55.58
2022-12-04T12:57:17.473Z,51.78
2022-12-04T12:59:48.871Z,53.67
2022-12-04T13:02:33.935Z,55.38
2022-12-04T13:05:05.344Z,60.10
2022-12-04T13:07:43.958Z,62.42
2022-12-04T13:10:20.414Z,61.42
2022-12-04T13:12:48.713Z,61.00
2022-12-04T13:15:16.776Z,53.50
2022-12-04T13:17:44.277Z,59.58
2022-12-04T13:20:21.711Z,63.05
2022-12-04T13:23:09.971Z,74.40
2022-12-04T13:25:52.932Z,65.20
2022-12-04T13:28:50.768Z,71.88
2022-12-04T13:31:32.553Z,62.03
2022-12-04T13:34:14.824Z,61.63
2022-12-04T13:36:57.412Z,64.05
2022-12-04T13:39:30.985Z,63.55
2022-12-04T13:42:02.537Z,63.28
2022-12-04T13:44:29.968Z,69.38
2022-12-04T13:46:58.007Z,64.43
2022-12-04T13:49:35.981Z,61.35
2022-12-04T13:52:06.097Z,56.25
2022-12-04T13:54:35.658Z,61.03
2022-12-04T13:57:14.337Z,59.80
2022-12-04T13:59:41.911Z,59.53
2022-12-04T14:02:22.542Z,59.13
2022-12-04T14:05:00.712Z,55.78
2022-12-04T14:07:28.557Z,56.78
2022-12-04T14:09:56.805Z,65.88
2022-12-04T14:12:29.231Z,53.45
2022-12-04T14:14:58.723Z,58.63
2022-12-04T14:17:28.524Z,54.72
2022-12-04T14:20:05.853Z,51.20
2022-12-04T14:22:34.503Z,50.13
2022-12-04T14:25:12.990Z,53.20
2022-12-04T14:27:45.046Z,49.30
2022-12-04T14:30:38.092Z,49.08
2022-12-04T14:33:17.665Z,51.95
2022-12-04T14:36:15.992Z,49.80
2022-12-04T14:38:48.144Z,45.28
2022-12-04T14:41:23.752Z,51.65
2022-12-04T14:43:50.371Z,49.05
2022-12-04T14:46:32.005Z,44.22
2022-12-04T14:49:18.226Z,53.13
2022-12-04T14:52:04.843Z,48.15
2022-12-04T14:54:40.147Z,45.78
2022-12-04T14:57:28.332Z,51.50
2022-12-04T14:59:55.361Z,43.35
2022-12-04T15:02:35.166Z,52.13
2022-12-04T15:05:02.344Z,64.18
2022-12-04T15:07:32.055Z,55.17
2022-12-04T15:10:19.949Z,47.17
2022-12-04T15:12:49.936Z,61.65
2022-12-04T15:15:19.451Z,57.97
2022-12-04T15:18:14.729Z,59.35
2022-12-04T15:20:51.124Z,54.17
2022-12-04T15:23:41.424Z,59.45
2022-12-04T15:26:11.574Z,61.57
2022-12-04T15:28:51.214Z,56.20
2022-12-04T15:31:20.840Z,59.30
2022-12-04T15:33:49.077Z,54.33
2022-12-04T15:36:27.640Z,61.05
2022-12-04T15:38:54.239Z,61.55
2022-12-04T15:41:35.481Z,64.00
2022-12-04T15:44:03.034Z,59.22
2022-12-04T15:46:34.859Z,59.90
2022-12-04T15:49:16.874Z,63.65
2022-12-04T15:51:45.856Z,62.20
2022-12-04T15:54:32.512Z,55.78
2022-12-04T15:57:13.468Z,64.35
2022-12-04T15:59:40.016Z,62.03
2022-12-04T16:02:23.398Z,63.38
2022-12-04T16:04:50.136Z,66.60
2022-12-04T16:07:23.961Z,69.30
2022-12-04T16:10:03.314Z,70.25
2022-12-04T16:12:31.828Z,64.25
2022-12-04T16:14:58.504Z,60.10
2022-12-04T16:17:30.789Z,60.63
2022-12-04T16:19:57.563Z,65.50
2022-12-04T16:22:24.733Z,60.85
2022-12-04T16:24:51.391Z,69.15
2022-12-04T16:27:22.526Z,60.42
2022-12-04T16:29:50.157Z,62.15
2022-12-04T16:32:19.133Z,60.22
2022-12-04T16:34:46.004Z,67.60
2022-12-04T16:37:14.283Z,69.88
2022-12-04T16:39:41.566Z,65.57
2022-12-04T16:42:22.339Z,62.55
2022-12-04T16:44:49.259Z,67.32
2022-12-04T16:47:15.695Z,63.47
2022-12-04T16:49:42.720Z,61.10
2022-12-04T16:52:11.272Z,65.65
2022-12-04T16:54:37.992Z,68.60
2022-12-04T16:57:04.444Z,53.88
2022-12-04T16:59:30.890Z,57.85
2022-12-04T17:01:57.607Z,65.43
2022-12-04T17:04:24.263Z,65.65
2022-12-04T17:06:50.928Z,54.28
2022-12-04T17:09:17.540Z,63.85
2022-12-04T17:11:44.277Z,53.22
2022-12-04T17:14:11.121Z,67.13
2022-12-04T17:16:41.038Z,60.60
2022-12-04T17:19:08.072Z,69.97
2022-12-04T17:21:34.617Z,67.63
2022-12-04T17:24:01.261Z,67.40
2022-12-04T17:26:28.035Z,55.45
2022-12-04T17:28:54.453Z,65.53
2022-12-04T17:31:23.550Z,68.82
2022-12-04T17:33:50.597Z,66.57
2022-12-04T17:36:22.369Z,73.00
2022-12-04T17:38:53.040Z,72.40
2022-12-04T17:41:19.536Z,73.30
2022-12-04T17:43:46.011Z,73.20
2022-12-04T17:46:14.891Z,76.53
2022-12-04T17:48:41.440Z,77.38
2022-12-04T17:51:28.692Z,77.80
2022-12-04T17:53:55.069Z,76.75
2022-12-04T17:56:23.410Z,72.03
2022-12-04T17:58:53.176Z,78.70
2022-12-04T18:01:21.997Z,82.75
2022-12-04T18:04:00.120Z,87.18
2022-12-04T18:06:28.929Z,89.93
2022-12-04T18:08:55.878Z,97.45
2022-12-04T18:11:26.237Z,86.50
2022-12-04T18:14:12.887Z,72.25
2022-12-04T18:16:42.691Z,84.65
2022-12-04T18:19:09.995Z,89.95
2022-12-04T18:21:37.013Z,86.30
2022-12-04T18:24:04.954Z,91.75
2022-12-04T18:26:40.575Z,91.65
2022-12-04T18:29:07.614Z,88.90
2022-12-04T18:31:34.177Z,86.05
2022-12-04T18:34:00.643Z,82.18
2022-12-04T18:36:29.658Z,108.35
2022-12-04T18:38:58.852Z,94.47
2022-12-04T18:41:26.179Z,83.50
2022-12-04T18:43:53.102Z,93.25
2022-12-04T18:46:20.230Z,82.88
2022-12-04T18:48:47.475Z,85.20
2022-12-04T18:51:35.721Z,94.30
2022-12-04T18:54:04.812Z,91.10
2022-12-04T18:56:33.023Z,85.45
2022-12-04T18:59:02.045Z,90.35
2022-12-04T19:01:28.841Z,93.28
2022-12-04T19:03:57.609Z,89.45
2022-12-04T19:06:44.138Z,89.35
2022-12-04T19:09:15.364Z,87.68
2022-12-04T19:11:42.750Z,79.32
2022-12-04T19:14:19.262Z,97.55
2022-12-04T19:16:49.196Z,83.85
2022-12-04T19:19:15.832Z,86.32
2022-12-04T19:21:42.551Z,84.53
2022-12-04T19:24:10.296Z,93.97
2022-12-04T19:26:36.906Z,88.00
2022-12-04T19:29:04.462Z,91.47
2022-12-04T19:31:33.407Z,87.45
2022-12-04T19:34:00.262Z,90.13
2022-12-04T19:36:29.788Z,86.75
2022-12-04T19:38:59.887Z,91.40
2022-12-04T19:41:30.119Z,95.97
2022-12-04T19:43:58.371Z,85.38
2022-12-04T19:46:26.901Z,80.75
2022-12-04T19:48:56.316Z,83.45
2022-12-04T19:51:22.757Z,92.22
2022-12-04T19:53:49.505Z,82.80
2022-12-04T19:56:21.336Z,78.93
2022-12-04T19:58:47.914Z,77.85
2022-12-04T20:01:17.105Z,77.72
2022-12-04T20:03:44.260Z,72.88
2022-12-04T20:06:13.622Z,80.90
2022-12-04T20:08:40.335Z,74.25
2022-12-04T20:11:12.612Z,73.50
2022-12-04T20:13:39.804Z,84.82
2022-12-04T20:16:08.464Z,80.85
2022-12-04T20:18:39.463Z,75.70
2022-12-04T20:21:12.278Z,71.28
2022-12-04T20:23:42.599Z,66.20
2022-12-04T20:26:11.326Z,70.32
2022-12-04T20:28:38.089Z,68.88
2022-12-04T20:31:15.847Z,85.55
2022-12-04T20:33:43.308Z,76.00
2022-12-04T20:36:10.588Z,83.75
2022-12-04T20:38:37.671Z,74.00
2022-12-04T20:41:05.509Z,72.18
2022-12-04T20:43:32.417Z,74.35
2022-12-04T20:45:59.075Z,64.78
2022-12-04T20:48:25.701Z,76.88
2022-12-04T20:50:52.275Z,70.38
2022-12-04T20:53:18.769Z,75.60
2022-12-04T20:55:56.092Z,76.15
2022-12-04T20:58:22.840Z,58.47
2022-12-04T21:00:49.351Z,72.43
2022-12-04T21:03:16.093Z,65.53
2022-12-04T21:05:48.248Z,73.20
2022-12-04T21:08:14.647Z,66.90
2022-12-04T21:10:41.155Z,64.15
2022-12-04T21:13:26.722Z,75.05
2022-12-04T21:16:02.362Z,64.68
2022-12-04T21:18:31.018Z,71.53
2022-12-04T21:20:57.525Z,66.47
2022-12-04T21:23:23.929Z,68.60
2022-12-04T21:25:50.316Z,60.97
2022-12-04T21:28:16.692Z,70.47
2022-12-04T21:30:43.063Z,67.28
2022-12-04T21:33:09.463Z,63.50
2022-12-04T21:35:39.444Z,65.60
2022-12-04T21:38:05.838Z,66.50
2022-12-04T21:40:38.957Z,68.28
2022-12-04T21:43:08.530Z,73.25
2022-12-04T21:45:34.927Z,69.47
2022-12-04T21:48:01.331Z,66.45
2022-12-04T21:50:27.739Z,74.82
2022-12-04T21:52:54.612Z,69.22
2022-12-04T21:55:20.994Z,75.72
2022-12-04T21:57:47.368Z,71.65
2022-12-04T22:00:14.340Z,76.30
2022-12-04T22:02:40.847Z,71.68
2022-12-04T22:05:07.599Z,70.78
2022-12-04T22:07:34.026Z,67.80
2022-12-04T22:10:04.080Z,77.30
2022-12-04T22:12:49.071Z,81.75
2022-12-04T22:15:16.319Z,70.60
2022-12-04T22:17:42.695Z,69.20
2022-12-04T22:20:09.414Z,70.57
2022-12-04T22:22:35.808Z,83.28
2022-12-04T22:25:02.195Z,81.07
2022-12-04T22:27:28.555Z,75.32
2022-12-04T22:29:55.083Z,80.03
2022-12-04T22:32:21.514Z,81.60
2022-12-04T22:34:49.022Z,74.72
2022-12-04T22:37:15.505Z,86.53
2022-12-04T22:39:41.954Z,76.88
2022-12-04T22:42:08.355Z,73.28
2022-12-04T22:44:34.746Z,85.60
2022-12-04T22:47:01.182Z,78.60
2022-12-04T22:49:27.856Z,86.07
2022-12-04T22:51:54.231Z,76.80
2022-12-04T22:54:20.585Z,70.45
2022-12-04T22:56:46.986Z,85.50
2022-12-04T22:59:13.396Z,80.85
2022-12-04T23:01:40.033Z,74.63
2022-12-04T23:04:06.425Z,82.32
2022-12-04T23:06:33.540Z,82.05
2022-12-04T23:09:02.531Z,82.80
2022-12-04T23:11:29.407Z,81.85
2022-12-04T23:14:04.328Z,76.78
2022-12-04T23:16:32.038Z,79.88
2022-12-04T23:18:58.779Z,73.85
2022-12-04T23:21:25.981Z,78.80
2022-12-04T23:23:53.619Z,75.32
2022-12-04T23:26:22.679Z,77.25
2022-12-04T23:28:49.254Z,82.10
2022-12-04T23:31:15.963Z,81.05
2022-12-04T23:33:42.617Z,91.00
2022-12-04T23:36:10.848Z,76.05
2022-12-04T23:38:40.119Z,89.43
2022-12-04T23:41:18.260Z,72.60
2022-12-04T23:43:45.243Z,83.65
2022-12-04T23:46:12.999Z,79.68
2022-12-04T23:48:40.909Z,81.38
2022-12-04T23:51:08.546Z,85.55
2022-12-04T23:53:35.366Z,72.00
2022-12-04T23:56:10.336Z,83.25
2022-12-04T23:58:36.792Z,73.57
